Portland, Oregon
Traffic Map
Current Weather Conditions
Portland, Oregon
Few Clouds
Few Clouds
33°
Feels Like: 33°
Wind Chill: 33° Ceiling: Unl
Heat Index: 33° Visibility: 10mi
Dew Point: 12° Wind: 9mph
Humidity: 27% Direction: 270° (W)
Pressure: 29.99in Gusts: 0mph
Raw Report DataKPDX 301953Z 27008KT 10SM FEW100 33/12 A2999 RMK AO2 SLP155 FU FEW100 T03280117
Traffic Incident Summary
Active as of:
Severity:
Category:
InformationThere was an issue retrieving the traffic information for this location. Please try a different location or try again shortly.
Advertisements
Track Severe Weather on mobile